Accueil
METAR-TAF:

METAR-TAF

Aéroports :

Cerklje ob Krki, Slovénie

latitude: 45-53-59N, longitude: 15-30-55E, altitude: 157 m

Observation

Le bulletin a été fait il y a 16 minutes, à 18:30 UTC
Vent 2 kt de est/nord-est
Température 2°C
Humidité 47%
Pression 1024 hPa
Visibilité 10 km ou plus

METAR: LJCE 311830Z AUTO 06002KT 9999 NCD 02/M08 Q1024

Heure: 20:46 (18:46 UTC)

Prévision

Le bulletin a été fait il y a 1 heure et 46 minutes, à 17:00 UTC
Prévision valable du 31 à 18 UTC au 01 à 03 UTC
Vent 5 kt de est/nord-est
Visibilité 10 km ou plus
pas de nuages en-dessous de 1500 mètres et pas de cumulonimbus.

TAF: LJCE 311700Z 3118/0103 07005KT CAVOK

Observations et prévisions météorologiques de plus de 4000 aéroports (messages METAR et TAF).

Les stations disponibles sont représentées par des disques jaunes et rouges sur la carte.

Passer la souris dessus pour voir le nom de la station.

Cliquer dessus pour voir les observations et prévisions météorologiques.

Pour changer de carte: cliquez sur les boutons verts avec une croix noire pour zoomer, sur le bouton vert avec un tiret pour effectuer un zoom arrière, ou sur les flèches vertes pour les cartes adjacentes.


METAR-TAF: